Terminal Aerodrome Forecast
Issued by NWS Memphis, TN

Home | Current Version | Previous Version | Text Only | Print | Product List | Glossary On
Versions: 1 2 3 4 5 6 7 8 9 10 11 12 13
000
FTUS44 KMEG 240530
TAFMKL
TAF
KMKL 240530Z 2406/2506 16009KT P6SM SKC
     FM241400 18012G18KT P6SM OVC040
     FM242000 18013G20KT P6SM OVC100=

USA.gov is the U.S. government's official web portal to all federal, state and local government web resources and services.